Flight Track Log - Related Links

Times and Time Zones

All times are in EST time to prevent confusion due to time zone crossing. See the N549PA flight status page for this flight to view local times or setup timezone preferences in your user account.


Time Position Orientation Groundspeed Altitude Reporting Facility
EST Latitude Longitude Course Direction KTS MPH feet Rate Location/Type
Mon 08:00:34 PM 40.8333 -74.1000 237° Southwest 183 211 1,000  Level New York TRACON
Mon 08:01:34 PM 40.8000 -74.1667 237° Southwest 207 238 2,400 3,197 Climbing New York TRACON
Mon 08:03:06 PM 40.8133 -74.2942 278° West 233 268 9,100 3,671 Climbing New York Center
Mon 08:04:06 PM 40.7922 -74.3728 250° West 244 281 11,700 4,200 Climbing New York Center
Mon 08:05:06 PM 40.7539 -74.4639 241° Southwest 269 310 17,500 5,700 Climbing New York Center
Mon 08:06:06 PM 40.7203 -74.5386 239° Southwest 259 298 23,100 3,900 Climbing New York Center
Mon 08:07:06 PM 40.6828 -74.6022 232° Southwest 239 275 25,300 1,650 Climbing New York Center
Mon 08:08:06 PM 40.6489 -74.6825 241° Southwest 233 268 26,400 1,550 Climbing New York Center
Mon 08:09:06 PM 40.6083 -74.7731 239° Southwest 260 299 28,400 1,950 Climbing New York Center
Mon 08:10:06 PM 40.5653 -74.8717 240° Southwest 290 334 30,300 2,050 Climbing New York Center
Mon 08:11:06 PM 40.5200 -74.9753 240° Southwest 301 346 32,500 2,050 Climbing New York Center
Mon 08:12:06 PM 40.4792 -75.0656 239° Southwest 300 345 34,400 1,500 Climbing New York Center
Mon 08:13:06 PM 40.4361 -75.1611 239° Southwest 300 345 35,500 1,000 Climbing New York Center
Mon 08:14:06 PM 40.3911 -75.2536 237° Southwest 300 345 36,400 1,200 Climbing New York Center
Mon 08:15:06 PM 40.3461 -75.3406 236° Southwest 300 345 37,900 800 Climbing New York Center
Mon 08:16:06 PM 40.2886 -75.4211 227° Southwest 307 353 38,000 50 Climbing New York Center
Mon 08:17:06 PM 40.2269 -75.5067 227° Southwest 314 361 38,000  Level New York Center
Mon 08:18:06 PM 40.1669 -75.5950 228° Southwest 326 375 38,000  Level New York Center
Mon 08:19:06 PM 40.1047 -75.6911 230° Southwest 337 388 38,000  Level New York Center
Mon 08:20:06 PM 40.0528 -75.7878 235° Southwest 342 394 38,000  Level New York Center
Mon 08:21:06 PM 39.9944 -75.8839 232° Southwest 342 394 38,000  Level New York Center
Mon 08:23:27 PM 39.8689 -76.0997 233° Southwest 348 400 38,000  Level Washington Center
Mon 08:24:28 PM 39.8122 -76.1939 232° Southwest 348 400 38,000  Level Washington Center
Mon 08:25:28 PM 39.7492 -76.2958 231° Southwest 348 400 38,000  Level Washington Center
Mon 08:26:27 PM 39.6861 -76.3922 230° Southwest 348 400 38,000  Level Washington Center
Mon 08:27:27 PM 39.6292 -76.4886 233° Southwest 348 400 38,000  Level Washington Center
Mon 08:28:28 PM 39.5678 -76.5822 230° Southwest 348 400 38,000  Level Washington Center
Mon 08:29:27 PM 39.5086 -76.6808 232° Southwest 348 400 38,000  Level Washington Center
Mon 08:30:27 PM 39.4517 -76.7767 232° Southwest 348 400 38,000  Level Washington Center
Mon 08:31:28 PM 39.3964 -76.8725 233° Southwest 348 400 38,000  Level Washington Center
Mon 08:32:29 PM 39.3392 -76.9656 232° Southwest 348 400 38,000  Level Washington Center
Mon 08:33:27 PM 39.2817 -77.0583 231° Southwest 343 395 38,000  Level Washington Center
Mon 08:34:27 PM 39.2242 -77.1536 232° Southwest 343 395 38,000  Level Washington Center
Mon 08:35:27 PM 39.1647 -77.2486 231° Southwest 343 395 38,000  Level Washington Center
Mon 08:36:28 PM 39.1050 -77.3436 231° Southwest 343 395 38,000  Level Washington Center
Mon 08:37:27 PM 39.0389 -77.4356 227° Southwest 348 400 38,000  Level Washington Center
Mon 08:38:28 PM 38.9750 -77.5275 228° Southwest 354 407 38,000  Level Washington Center
Mon 08:39:29 PM 38.9067 -77.6244 228° Southwest 360 414 38,000  Level Washington Center
Mon 08:40:27 PM 38.8469 -77.7081 227° Southwest 360 414 38,000  Level Washington Center
Mon 08:41:27 PM 38.7825 -77.8019 229° Southwest 360 414 38,000  Level Washington Center
Mon 08:42:28 PM 38.7161 -77.9011 229° Southwest 365 420 38,000  Level Washington Center
Mon 08:43:29 PM 38.6517 -77.9947 229° Southwest 365 420 38,000  Level Washington Center
Mon 08:44:27 PM 38.5872 -78.0883 229° Southwest 365 420 38,000  Level Washington Center
Mon 08:45:29 PM 38.5247 -78.1844 230° Southwest 360 414 38,000  Level Washington Center
Mon 08:46:29 PM 38.4600 -78.2803 229° Southwest 360 414 38,000  Level Washington Center
Mon 08:47:27 PM 38.3975 -78.3733 229° Southwest 360 414 38,000  Level Washington Center
Mon 08:48:27 PM 38.3328 -78.4717 230° Southwest 360 414 38,000  Level Washington Center
Mon 08:49:27 PM 38.2656 -78.5747 230° Southwest 360 414 38,000  Level Washington Center
Mon 08:50:28 PM 38.2050 -78.6594 228° Southwest 360 414 38,000  Level Washington Center
Mon 08:51:27 PM 38.1400 -78.7547 229° Southwest 360 414 38,000  Level Washington Center
Mon 08:52:28 PM 38.0750 -78.8469 228° Southwest 365 420 38,000  Level Washington Center
Mon 08:53:29 PM 38.0078 -78.9389 227° Southwest 360 414 38,000  Level Washington Center
Mon 08:54:27 PM 37.9381 -79.0464 231° Southwest 360 414 38,000  Level Washington Center
Mon 08:55:27 PM 37.8725 -79.1433 229° Southwest 360 414 38,000  Level Washington Center
Mon 08:56:29 PM 37.8114 -79.2375 231° Southwest 360 414 38,000  Level Washington Center
Mon 08:57:29 PM 37.7456 -79.3369 230° Southwest 360 414 38,000  Level Washington Center
Mon 08:58:27 PM 37.6758 -79.4306 227° Southwest 368 423 38,000  Level Washington Center
Mon 08:59:27 PM 37.6147 -79.5167 228° Southwest 373 429 38,000  Level Washington Center
Mon 09:00:28 PM 37.5403 -79.6200 228° Southwest 373 429 38,000  Level Washington Center
Mon 09:02:39 PM 37.3831 -79.8314 227° Southwest 365 420 38,000  Level Atlanta Center
Mon 09:03:39 PM 37.3233 -79.9131 227° Southwest 370 426 38,000  Level Atlanta Center
Mon 09:04:39 PM 37.2536 -80.0053 226° Southwest 365 420 38,000  Level Atlanta Center
Mon 09:05:39 PM 37.1836 -80.1000 227° Southwest 359 413 38,000  Level Atlanta Center
Mon 09:06:39 PM 37.1114 -80.1894 225° Southwest 359 413 38,000  Level Atlanta Center
Mon 09:07:39 PM 37.0333 -80.2947 227° Southwest 373 429 38,000  Level Atlanta Center
Mon 09:08:39 PM 36.9694 -80.3886 230° Southwest 373 429 38,000  Level Atlanta Center
Mon 09:09:39 PM 36.9078 -80.4850 231° Southwest 368 423 38,000  Level Atlanta Center
Mon 09:10:39 PM 36.8458 -80.5811 231° Southwest 363 418 38,000  Level Atlanta Center
Mon 09:11:39 PM 36.7897 -80.6639 230° Southwest 358 412 38,000  Level Atlanta Center
Mon 09:12:39 PM 36.7319 -80.7622 234° Southwest 358 412 38,000  Level Atlanta Center
Mon 09:13:39 PM 36.6697 -80.8553 230° Southwest 358 412 38,000  Level Atlanta Center
Mon 09:14:39 PM 36.6075 -80.9508 231° Southwest 358 412 38,000  Level Atlanta Center
Mon 09:15:39 PM 36.5453 -81.0411 229° Southwest 358 412 38,000  Level Atlanta Center
Mon 09:16:39 PM 36.4808 -81.1367 230° Southwest 358 412 38,000  Level Atlanta Center
Mon 09:17:39 PM 36.4161 -81.2317 230° Southwest 358 412 38,000  Level Atlanta Center
Mon 09:18:39 PM 36.3536 -81.3242 230° Southwest 358 412 38,000  Level Atlanta Center
Mon 09:19:39 PM 36.2869 -81.4217 230° Southwest 358 412 38,000  Level Atlanta Center
Mon 09:20:39 PM 36.2222 -81.5139 229° Southwest 358 412 38,000  Level Atlanta Center
Mon 09:21:39 PM 36.1614 -81.6058 231° Southwest 358 412 38,000  Level Atlanta Center
Mon 09:22:39 PM 36.0986 -81.6978 230° Southwest 358 412 38,000  Level Atlanta Center
Mon 09:23:39 PM 36.0356 -81.7894 230° Southwest 358 412 38,000  Level Atlanta Center
Mon 09:24:39 PM 35.9728 -81.8886 232° Southwest 358 412 38,000  Level Atlanta Center
Mon 09:25:39 PM 35.9097 -81.9825 230° Southwest 358 412 38,000 -150 Level Atlanta Center
Mon 09:26:39 PM 35.8425 -82.0792 229° Southwest 363 418 37,700 -550 Descending Atlanta Center
Mon 09:27:39 PM 35.7917 -82.1725 236° Southwest 352 405 36,900 -750 Descending Atlanta Center
Mon 09:28:39 PM 35.7242 -82.2608 227° Southwest 352 405 36,200 -700 Descending Atlanta Center
Mon 09:29:39 PM 35.6608 -82.3544 230° Southwest 352 405 35,500 -600 Descending Atlanta Center
Mon 09:30:39 PM 35.5972 -82.4400 228° Southwest 352 405 35,000 -950 Descending Atlanta Center
Mon 09:31:39 PM 35.5358 -82.5203 227° Southwest 344 396 33,600 -2,200 Descending Atlanta Center
Mon 09:32:39 PM 35.4597 -82.6108 224° Southwest 337 388 30,600 -2,000 Descending Atlanta Center
Mon 09:33:39 PM 35.4000 -82.6858 226° Southwest 343 395 29,600 -1,200 Descending Atlanta Center
Mon 09:34:39 PM 35.3361 -82.7733 228° Southwest 343 395 28,200 -1,550 Descending Atlanta Center
Mon 09:35:39 PM 35.2744 -82.8633 230° Southwest 343 395 26,500 -1,550 Descending Atlanta Center
Mon 09:36:39 PM 35.2106 -82.9456 226° Southwest 343 395 25,100 -1,650 Descending Atlanta Center
Mon 09:37:39 PM 35.1467 -83.0328 228° Southwest 344 396 23,200 -1,950 Descending Atlanta Center
Mon 09:38:39 PM 35.0806 -83.1175 226° Southwest 349 402 21,200 -1,750 Descending Atlanta Center
Mon 09:39:39 PM 35.0103 -83.2044 225° Southwest 349 402 19,700 -1,650 Descending Atlanta Center
Mon 09:40:39 PM 34.9439 -83.2861 225° Southwest 349 402 17,900 -1,600 Descending Atlanta Center
Mon 09:41:39 PM 34.8756 -83.3781 228° Southwest 358 412 16,500 -1,250 Descending Atlanta Center
Mon 09:42:39 PM 34.8072 -83.4694 228° Southwest 364 419 15,400 -1,200 Descending Atlanta Center
Mon 09:43:39 PM 34.7511 -83.5483 229° Southwest 348 400 14,100 -1,400 Descending Atlanta Center
Mon 09:44:39 PM 34.6889 -83.6269 226° Southwest 329 379 12,600 -1,400 Descending Atlanta Center
Mon 09:45:39 PM 34.6225 -83.7106 226° Southwest 316 364 11,300 -1,150 Descending Atlanta Center
Mon 09:46:39 PM 34.5619 -83.7839 225° Southwest 304 350 10,300 -850 Descending Atlanta Center
Mon 09:47:39 PM 34.5036 -83.8497 223° Southwest 296 341 9,600 -900 Descending Atlanta Center
Mon 09:48:39 PM 34.4453 -83.9128 222° Southwest 296 341 8,500 -750 Descending Atlanta Center
Mon 09:49:39 PM 34.3892 -83.9783 224° Southwest 289 333 8,100 -250 Descending Atlanta Center
Mon 09:50:39 PM 34.3369 -84.0414 225° Southwest 277 319 8,000 -50 Descending Atlanta Center
Mon 09:51:39 PM 34.2742 -84.0892 212° Southwest 272 313 8,000  Level Atlanta Center
Mon 09:52:39 PM 34.2222 -84.1392 219° Southwest 260 299 8,000 -400 Level Atlanta Center
Mon 09:53:39 PM 34.2178 -84.2247 266° West 238 274 7,200 -1,000 Descending Atlanta Center
Mon 09:54:39 PM 34.2156 -84.3178 268° West 273 314 6,000 -1,150 Descending Atlanta Center
Mon 09:55:39 PM 34.2194 -84.3981 273° West 257 296 4,900 -950 Descending Atlanta Center
Mon 09:56:39 PM 34.2194 -84.4633 270° West 216 249 4,100 -400 Descending Atlanta Center
Mon 09:57:39 PM 34.2233 -84.5336 274° West 203 234 4,100  Level Atlanta Center
Mon 09:59:00 PM 34.1784 -84.6753 281° West  Level Estimated
Mon 10:06:00 PM 34.1167 -84.8333 270° West  Level FlightAware Approximate
Mon 10:07:00 PM 34.1231 -84.8487 270° West  Level Estimated
Mon 10:08:00 PM 34.1231 -84.8487 270° West  Level Estimated
Mon 10:09:00 PM 34.1231 -84.8487 270° West  Level Estimated
Mon 10:10:00 PM 34.1231 -84.8487 270° West  Level Estimated
Mon 10:11:00 PM 34.1231 -84.8487 270° West  Level Estimated
Mon 10:12:00 PM 34.1231 -84.8487 270° West  Level Estimated
Mon 10:13:00 PM 34.1231 -84.8487 270° West  Level Estimated
Mon 10:14:00 PM 34.1231 -84.8487 270° West  Level Estimated
Mon 10:15:00 PM 34.1231 -84.8487 270° West  Level Estimated
Mon 10:16:00 PM 34.1231 -84.8487 270° West  Level Estimated
Mon 10:17:00 PM 34.1231 -84.8487 270° West  Level Estimated
Mon 10:18:00 PM 34.1231 -84.8487 270° West  Level Estimated
Mon 10:19:00 PM 34.1231 -84.8487 270° West  Level Estimated

Login

Don't have an account? Register now (free) for customized features, flight alerts, and more!